sensor_id;sensor_type;location;lat;lon;timestamp;pressure;altitude;pressure_sealevel;temperature
12061;BMP180;6091;51.432;6.880;2023-08-08T00:01:29;100728.00;;;26.10
12061;BMP180;6091;51.432;6.880;2023-08-08T00:03:56;100727.00;;;26.10
12061;BMP180;6091;51.432;6.880;2023-08-08T00:06:24;100720.00;;;26.10
12061;BMP180;6091;51.432;6.880;2023-08-08T00:08:50;100717.00;;;26.10
12061;BMP180;6091;51.432;6.880;2023-08-08T00:11:18;100715.00;;;26.10
12061;BMP180;6091;51.432;6.880;2023-08-08T00:13:45;100704.00;;;26.00
12061;BMP180;6091;51.432;6.880;2023-08-08T00:16:12;100706.00;;;26.10
12061;BMP180;6091;51.432;6.880;2023-08-08T00:18:39;100703.00;;;26.10
12061;BMP180;6091;51.432;6.880;2023-08-08T00:21:06;100703.00;;;26.00
12061;BMP180;6091;51.432;6.880;2023-08-08T00:23:33;100709.00;;;26.00
12061;BMP180;6091;51.432;6.880;2023-08-08T00:26:00;100713.00;;;26.00
12061;BMP180;6091;51.432;6.880;2023-08-08T00:28:27;100703.00;;;26.00
12061;BMP180;6091;51.432;6.880;2023-08-08T00:30:54;100706.00;;;26.00
12061;BMP180;6091;51.432;6.880;2023-08-08T00:33:21;100705.00;;;26.00
12061;BMP180;6091;51.432;6.880;2023-08-08T00:35:48;100712.00;;;26.00
12061;BMP180;6091;51.432;6.880;2023-08-08T00:38:16;100710.00;;;26.00
12061;BMP180;6091;51.432;6.880;2023-08-08T00:40:45;100715.00;;;26.00
12061;BMP180;6091;51.432;6.880;2023-08-08T00:43:12;100715.00;;;26.00
12061;BMP180;6091;51.432;6.880;2023-08-08T00:45:43;100709.00;;;26.00
12061;BMP180;6091;51.432;6.880;2023-08-08T00:48:11;100710.00;;;26.00
12061;BMP180;6091;51.432;6.880;2023-08-08T00:50:43;100711.00;;;26.00
12061;BMP180;6091;51.432;6.880;2023-08-08T00:53:14;100712.00;;;26.00
12061;BMP180;6091;51.432;6.880;2023-08-08T00:55:41;100707.00;;;26.00
12061;BMP180;6091;51.432;6.880;2023-08-08T00:58:09;100708.00;;;26.00
12061;BMP180;6091;51.432;6.880;2023-08-08T01:00:36;100705.00;;;26.00
12061;BMP180;6091;51.432;6.880;2023-08-08T01:03:04;100704.00;;;26.00
12061;BMP180;6091;51.432;6.880;2023-08-08T01:05:40;100712.00;;;26.00
12061;BMP180;6091;51.432;6.880;2023-08-08T01:08:08;100713.00;;;26.00
12061;BMP180;6091;51.432;6.880;2023-08-08T01:10:39;100703.00;;;26.00
12061;BMP180;6091;51.432;6.880;2023-08-08T01:13:16;100703.00;;;26.00
12061;BMP180;6091;51.432;6.880;2023-08-08T01:15:46;100699.00;;;26.00
12061;BMP180;6091;51.432;6.880;2023-08-08T01:18:15;100702.00;;;26.00
12061;BMP180;6091;51.432;6.880;2023-08-08T01:20:43;100700.00;;;26.00
12061;BMP180;6091;51.432;6.880;2023-08-08T01:23:53;100705.00;;;25.90
12061;BMP180;6091;51.432;6.880;2023-08-08T01:26:23;100694.00;;;25.90
12061;BMP180;6091;51.432;6.880;2023-08-08T01:28:54;100698.00;;;25.90
12061;BMP180;6091;51.432;6.880;2023-08-08T01:31:21;100697.00;;;25.90
12061;BMP180;6091;51.432;6.880;2023-08-08T01:33:49;100690.00;;;25.90
12061;BMP180;6091;51.432;6.880;2023-08-08T01:36:27;100683.00;;;25.90
12061;BMP180;6091;51.432;6.880;2023-08-08T01:39:00;100682.00;;;25.90
12061;BMP180;6091;51.432;6.880;2023-08-08T01:41:35;100685.00;;;25.90
12061;BMP180;6091;51.432;6.880;2023-08-08T01:44:05;100683.00;;;25.90
12061;BMP180;6091;51.432;6.880;2023-08-08T01:46:34;100682.00;;;25.90
12061;BMP180;6091;51.432;6.880;2023-08-08T01:49:01;100678.00;;;25.90
12061;BMP180;6091;51.432;6.880;2023-08-08T01:51:28;100671.00;;;25.90
12061;BMP180;6091;51.432;6.880;2023-08-08T01:53:55;100677.00;;;25.90
12061;BMP180;6091;51.432;6.880;2023-08-08T01:56:23;100673.00;;;25.90
12061;BMP180;6091;51.432;6.880;2023-08-08T01:58:50;100683.00;;;25.90
12061;BMP180;6091;51.432;6.880;2023-08-08T02:01:17;100669.00;;;25.90
12061;BMP180;6091;51.432;6.880;2023-08-08T02:03:44;100668.00;;;25.90
12061;BMP180;6091;51.432;6.880;2023-08-08T02:06:11;100660.00;;;25.90
12061;BMP180;6091;51.432;6.880;2023-08-08T02:08:38;100646.00;;;25.90
12061;BMP180;6091;51.432;6.880;2023-08-08T02:11:06;100649.00;;;25.90
12061;BMP180;6091;51.432;6.880;2023-08-08T02:13:36;100647.00;;;25.90
12061;BMP180;6091;51.432;6.880;2023-08-08T02:16:04;100642.00;;;25.90
12061;BMP180;6091;51.432;6.880;2023-08-08T02:18:33;100640.00;;;25.90
12061;BMP180;6091;51.432;6.880;2023-08-08T02:21:01;100645.00;;;25.90
12061;BMP180;6091;51.432;6.880;2023-08-08T02:23:28;100652.00;;;25.90
12061;BMP180;6091;51.432;6.880;2023-08-08T02:25:55;100655.00;;;25.90
12061;BMP180;6091;51.432;6.880;2023-08-08T02:28:22;100657.00;;;25.90
12061;BMP180;6091;51.432;6.880;2023-08-08T02:30:49;100658.00;;;25.90
12061;BMP180;6091;51.432;6.880;2023-08-08T02:33:16;100661.00;;;25.80
12061;BMP180;6091;51.432;6.880;2023-08-08T02:35:43;100665.00;;;25.90
12061;BMP180;6091;51.432;6.880;2023-08-08T02:38:10;100652.00;;;25.80
12061;BMP180;6091;51.432;6.880;2023-08-08T02:40:37;100655.00;;;25.90
12061;BMP180;6091;51.432;6.880;2023-08-08T02:43:05;100647.00;;;25.80
12061;BMP180;6091;51.432;6.880;2023-08-08T02:45:33;100648.00;;;25.80
12061;BMP180;6091;51.432;6.880;2023-08-08T02:48:00;100643.00;;;25.80
12061;BMP180;6091;51.432;6.880;2023-08-08T02:50:27;100650.00;;;25.80
12061;BMP180;6091;51.432;6.880;2023-08-08T02:52:54;100645.00;;;25.80
12061;BMP180;6091;51.432;6.880;2023-08-08T02:55:21;100655.00;;;25.80
12061;BMP180;6091;51.432;6.880;2023-08-08T02:57:48;100650.00;;;25.80
12061;BMP180;6091;51.432;6.880;2023-08-08T03:00:15;100651.00;;;25.80
12061;BMP180;6091;51.432;6.880;2023-08-08T03:02:42;100635.00;;;25.80
12061;BMP180;6091;51.432;6.880;2023-08-08T03:05:09;100632.00;;;25.80
12061;BMP180;6091;51.432;6.880;2023-08-08T03:07:36;100623.00;;;25.80
12061;BMP180;6091;51.432;6.880;2023-08-08T03:10:04;100650.00;;;25.80
12061;BMP180;6091;51.432;6.880;2023-08-08T03:12:31;100644.00;;;25.80
12061;BMP180;6091;51.432;6.880;2023-08-08T03:14:58;100637.00;;;25.80
12061;BMP180;6091;51.432;6.880;2023-08-08T03:17:28;100639.00;;;25.80
12061;BMP180;6091;51.432;6.880;2023-08-08T03:20:08;100653.00;;;25.80
12061;BMP180;6091;51.432;6.880;2023-08-08T03:22:37;100648.00;;;25.80
12061;BMP180;6091;51.432;6.880;2023-08-08T03:25:05;100638.00;;;25.80
12061;BMP180;6091;51.432;6.880;2023-08-08T03:27:32;100648.00;;;25.80
12061;BMP180;6091;51.432;6.880;2023-08-08T03:29:59;100637.00;;;25.80
12061;BMP180;6091;51.432;6.880;2023-08-08T03:32:27;100631.00;;;25.80
12061;BMP180;6091;51.432;6.880;2023-08-08T03:34:55;100620.00;;;25.80
12061;BMP180;6091;51.432;6.880;2023-08-08T03:37:21;100618.00;;;25.80
12061;BMP180;6091;51.432;6.880;2023-08-08T03:39:48;100626.00;;;25.80
12061;BMP180;6091;51.432;6.880;2023-08-08T03:42:16;100628.00;;;25.80
12061;BMP180;6091;51.432;6.880;2023-08-08T03:44:43;100620.00;;;25.80
12061;BMP180;6091;51.432;6.880;2023-08-08T03:47:11;100621.00;;;25.80
12061;BMP180;6091;51.432;6.880;2023-08-08T03:49:45;100635.00;;;25.80
12061;BMP180;6091;51.432;6.880;2023-08-08T03:52:12;100624.00;;;25.80
12061;BMP180;6091;51.432;6.880;2023-08-08T03:54:40;100625.00;;;25.80
12061;BMP180;6091;51.432;6.880;2023-08-08T03:57:07;100620.00;;;25.80
12061;BMP180;6091;51.432;6.880;2023-08-08T03:59:34;100613.00;;;25.80
12061;BMP180;6091;51.432;6.880;2023-08-08T04:02:01;100624.00;;;25.80
12061;BMP180;6091;51.432;6.880;2023-08-08T04:04:28;100630.00;;;25.80
12061;BMP180;6091;51.432;6.880;2023-08-08T04:06:55;100630.00;;;25.80
12061;BMP180;6091;51.432;6.880;2023-08-08T04:09:25;100629.00;;;25.80
12061;BMP180;6091;51.432;6.880;2023-08-08T04:11:52;100626.00;;;25.80
12061;BMP180;6091;51.432;6.880;2023-08-08T04:14:19;100617.00;;;25.80
12061;BMP180;6091;51.432;6.880;2023-08-08T04:16:46;100622.00;;;25.80
12061;BMP180;6091;51.432;6.880;2023-08-08T04:19:13;100619.00;;;25.80
12061;BMP180;6091;51.432;6.880;2023-08-08T04:21:40;100620.00;;;25.80
12061;BMP180;6091;51.432;6.880;2023-08-08T04:24:08;100620.00;;;25.80
12061;BMP180;6091;51.432;6.880;2023-08-08T04:26:35;100613.00;;;25.80
12061;BMP180;6091;51.432;6.880;2023-08-08T04:29:02;100614.00;;;25.80
12061;BMP180;6091;51.432;6.880;2023-08-08T04:31:29;100611.00;;;25.80
12061;BMP180;6091;51.432;6.880;2023-08-08T04:33:56;100610.00;;;25.80
12061;BMP180;6091;51.432;6.880;2023-08-08T04:36:31;100617.00;;;25.80
12061;BMP180;6091;51.432;6.880;2023-08-08T04:38:58;100615.00;;;25.80
12061;BMP180;6091;51.432;6.880;2023-08-08T04:41:25;100621.00;;;25.80
12061;BMP180;6091;51.432;6.880;2023-08-08T04:43:52;100614.00;;;25.80
12061;BMP180;6091;51.432;6.880;2023-08-08T04:46:19;100607.00;;;25.80
12061;BMP180;6091;51.432;6.880;2023-08-08T04:48:46;100608.00;;;25.80
12061;BMP180;6091;51.432;6.880;2023-08-08T04:51:13;100613.00;;;25.80
12061;BMP180;6091;51.432;6.880;2023-08-08T04:53:40;100603.00;;;25.80
12061;BMP180;6091;51.432;6.880;2023-08-08T04:56:07;100605.00;;;25.80
12061;BMP180;6091;51.432;6.880;2023-08-08T04:58:34;100608.00;;;25.80
12061;BMP180;6091;51.432;6.880;2023-08-08T05:01:01;100609.00;;;25.80
12061;BMP180;6091;51.432;6.880;2023-08-08T05:03:28;100595.00;;;25.80
12061;BMP180;6091;51.432;6.880;2023-08-08T05:05:55;100593.00;;;25.80
12061;BMP180;6091;51.432;6.880;2023-08-08T05:08:22;100600.00;;;25.80
12061;BMP180;6091;51.432;6.880;2023-08-08T05:10:49;100598.00;;;25.80
12061;BMP180;6091;51.432;6.880;2023-08-08T05:13:16;100602.00;;;25.80
12061;BMP180;6091;51.432;6.880;2023-08-08T05:15:43;100607.00;;;25.80
12061;BMP180;6091;51.432;6.880;2023-08-08T05:18:12;100593.00;;;25.80
12061;BMP180;6091;51.432;6.880;2023-08-08T05:20:39;100603.00;;;25.80
12061;BMP180;6091;51.432;6.880;2023-08-08T05:23:06;100605.00;;;25.80
12061;BMP180;6091;51.432;6.880;2023-08-08T05:25:33;100604.00;;;25.80
12061;BMP180;6091;51.432;6.880;2023-08-08T05:28:00;100607.00;;;25.80
12061;BMP180;6091;51.432;6.880;2023-08-08T05:30:27;100611.00;;;25.80
12061;BMP180;6091;51.432;6.880;2023-08-08T05:32:54;100608.00;;;25.80
12061;BMP180;6091;51.432;6.880;2023-08-08T05:35:21;100610.00;;;25.80
12061;BMP180;6091;51.432;6.880;2023-08-08T05:37:48;100613.00;;;25.80
12061;BMP180;6091;51.432;6.880;2023-08-08T05:40:15;100616.00;;;25.80
12061;BMP180;6091;51.432;6.880;2023-08-08T05:42:42;100611.00;;;25.80
12061;BMP180;6091;51.432;6.880;2023-08-08T05:45:09;100607.00;;;25.80
12061;BMP180;6091;51.432;6.880;2023-08-08T05:47:36;100614.00;;;25.90
12061;BMP180;6091;51.432;6.880;2023-08-08T05:50:03;100616.00;;;25.90
12061;BMP180;6091;51.432;6.880;2023-08-08T05:52:31;100612.00;;;26.00
12061;BMP180;6091;51.432;6.880;2023-08-08T05:54:58;100609.00;;;26.00
12061;BMP180;6091;51.432;6.880;2023-08-08T05:57:28;100611.00;;;26.10
12061;BMP180;6091;51.432;6.880;2023-08-08T05:59:55;100618.00;;;26.20
12061;BMP180;6091;51.432;6.880;2023-08-08T06:02:24;100622.00;;;26.30
12061;BMP180;6091;51.432;6.880;2023-08-08T06:04:53;100613.00;;;26.30
12061;BMP180;6091;51.432;6.880;2023-08-08T06:07:20;100623.00;;;26.40
12061;BMP180;6091;51.432;6.880;2023-08-08T06:09:47;100628.00;;;26.50
12061;BMP180;6091;51.432;6.880;2023-08-08T06:12:14;100625.00;;;26.60
12061;BMP180;6091;51.432;6.880;2023-08-08T06:14:41;100619.00;;;26.60
12061;BMP180;6091;51.432;6.880;2023-08-08T06:17:08;100625.00;;;26.70
12061;BMP180;6091;51.432;6.880;2023-08-08T06:19:35;100631.00;;;26.70
12061;BMP180;6091;51.432;6.880;2023-08-08T06:22:02;100643.00;;;26.80
12061;BMP180;6091;51.432;6.880;2023-08-08T06:24:30;100642.00;;;26.80
12061;BMP180;6091;51.432;6.880;2023-08-08T06:26:57;100637.00;;;26.90
12061;BMP180;6091;51.432;6.880;2023-08-08T06:29:24;100641.00;;;26.90
12061;BMP180;6091;51.432;6.880;2023-08-08T06:31:51;100646.00;;;27.00
12061;BMP180;6091;51.432;6.880;2023-08-08T06:34:18;100646.00;;;27.00
12061;BMP180;6091;51.432;6.880;2023-08-08T06:36:45;100644.00;;;27.00
12061;BMP180;6091;51.432;6.880;2023-08-08T06:39:13;100639.00;;;27.10
12061;BMP180;6091;51.432;6.880;2023-08-08T06:41:41;100643.00;;;27.10
12061;BMP180;6091;51.432;6.880;2023-08-08T06:44:08;100644.00;;;27.10
12061;BMP180;6091;51.432;6.880;2023-08-08T06:46:35;100650.00;;;27.10
12061;BMP180;6091;51.432;6.880;2023-08-08T06:49:02;100648.00;;;27.10
12061;BMP180;6091;51.432;6.880;2023-08-08T06:51:29;100649.00;;;27.10
12061;BMP180;6091;51.432;6.880;2023-08-08T06:53:57;100643.00;;;27.10
12061;BMP180;6091;51.432;6.880;2023-08-08T06:56:24;100642.00;;;27.00
12061;BMP180;6091;51.432;6.880;2023-08-08T06:58:53;100647.00;;;27.00
12061;BMP180;6091;51.432;6.880;2023-08-08T07:01:20;100639.00;;;27.00
12061;BMP180;6091;51.432;6.880;2023-08-08T07:03:47;100635.00;;;27.00
12061;BMP180;6091;51.432;6.880;2023-08-08T07:06:18;100629.00;;;27.00
12061;BMP180;6091;51.432;6.880;2023-08-08T07:08:45;100626.00;;;26.90
12061;BMP180;6091;51.432;6.880;2023-08-08T07:11:12;100631.00;;;26.90
12061;BMP180;6091;51.432;6.880;2023-08-08T07:13:39;100632.00;;;26.90
12061;BMP180;6091;51.432;6.880;2023-08-08T07:16:06;100633.00;;;26.90
12061;BMP180;6091;51.432;6.880;2023-08-08T07:18:33;100632.00;;;26.90
12061;BMP180;6091;51.432;6.880;2023-08-08T07:21:00;100627.00;;;26.90
12061;BMP180;6091;51.432;6.880;2023-08-08T07:23:27;100628.00;;;26.90
12061;BMP180;6091;51.432;6.880;2023-08-08T07:25:54;100627.00;;;26.90
12061;BMP180;6091;51.432;6.880;2023-08-08T07:28:21;100628.00;;;26.90
12061;BMP180;6091;51.432;6.880;2023-08-08T07:30:49;100625.00;;;26.90
12061;BMP180;6091;51.432;6.880;2023-08-08T07:33:16;100622.00;;;26.90
12061;BMP180;6091;51.432;6.880;2023-08-08T07:35:43;100615.00;;;26.90
12061;BMP180;6091;51.432;6.880;2023-08-08T07:38:10;100620.00;;;26.90
12061;BMP180;6091;51.432;6.880;2023-08-08T07:40:37;100603.00;;;26.90
12061;BMP180;6091;51.432;6.880;2023-08-08T07:43:07;100609.00;;;26.90
12061;BMP180;6091;51.432;6.880;2023-08-08T07:45:34;100619.00;;;26.90
12061;BMP180;6091;51.432;6.880;2023-08-08T07:48:01;100619.00;;;27.00
12061;BMP180;6091;51.432;6.880;2023-08-08T07:50:28;100620.00;;;27.00
12061;BMP180;6091;51.432;6.880;2023-08-08T07:52:55;100618.00;;;27.00
12061;BMP180;6091;51.432;6.880;2023-08-08T07:55:22;100617.00;;;27.00
12061;BMP180;6091;51.432;6.880;2023-08-08T07:57:49;100607.00;;;27.00
12061;BMP180;6091;51.432;6.880;2023-08-08T08:00:16;100611.00;;;27.00
12061;BMP180;6091;51.432;6.880;2023-08-08T08:02:46;100609.00;;;27.00
12061;BMP180;6091;51.432;6.880;2023-08-08T08:05:16;100613.00;;;27.00
12061;BMP180;6091;51.432;6.880;2023-08-08T08:07:44;100613.00;;;27.00
12061;BMP180;6091;51.432;6.880;2023-08-08T08:10:12;100610.00;;;27.00
12061;BMP180;6091;51.432;6.880;2023-08-08T08:12:41;100623.00;;;27.00
12061;BMP180;6091;51.432;6.880;2023-08-08T08:15:09;100621.00;;;27.00
12061;BMP180;6091;51.432;6.880;2023-08-08T08:17:37;100621.00;;;27.00
12061;BMP180;6091;51.432;6.880;2023-08-08T08:20:05;100618.00;;;27.00
12061;BMP180;6091;51.432;6.880;2023-08-08T08:22:38;100611.00;;;27.10
12061;BMP180;6091;51.432;6.880;2023-08-08T08:25:06;100613.00;;;27.10
12061;BMP180;6091;51.432;6.880;2023-08-08T08:27:39;100610.00;;;27.10
12061;BMP180;6091;51.432;6.880;2023-08-08T08:30:08;100609.00;;;27.10
12061;BMP180;6091;51.432;6.880;2023-08-08T08:32:39;100616.00;;;27.10
12061;BMP180;6091;51.432;6.880;2023-08-08T08:35:07;100621.00;;;27.10
12061;BMP180;6091;51.432;6.880;2023-08-08T08:37:35;100617.00;;;27.20
12061;BMP180;6091;51.432;6.880;2023-08-08T08:40:02;100616.00;;;27.20
12061;BMP180;6091;51.432;6.880;2023-08-08T08:42:34;100610.00;;;27.20
12061;BMP180;6091;51.432;6.880;2023-08-08T08:45:03;100611.00;;;27.20
12061;BMP180;6091;51.432;6.880;2023-08-08T08:47:35;100609.00;;;27.20
12061;BMP180;6091;51.432;6.880;2023-08-08T08:50:03;100611.00;;;27.20
12061;BMP180;6091;51.432;6.880;2023-08-08T08:52:31;100602.00;;;27.20
12061;BMP180;6091;51.432;6.880;2023-08-08T08:55:00;100615.00;;;27.30
12061;BMP180;6091;51.432;6.880;2023-08-08T08:57:28;100613.00;;;27.30
12061;BMP180;6091;51.432;6.880;2023-08-08T08:59:55;100613.00;;;27.30
12061;BMP180;6091;51.432;6.880;2023-08-08T09:02:24;100605.00;;;27.30
12061;BMP180;6091;51.432;6.880;2023-08-08T09:04:51;100600.00;;;27.30
12061;BMP180;6091;51.432;6.880;2023-08-08T09:07:22;100613.00;;;27.40
12061;BMP180;6091;51.432;6.880;2023-08-08T09:09:52;100610.00;;;27.40
12061;BMP180;6091;51.432;6.880;2023-08-08T09:12:20;100607.00;;;27.40
12061;BMP180;6091;51.432;6.880;2023-08-08T09:14:47;100606.00;;;27.40
12061;BMP180;6091;51.432;6.880;2023-08-08T09:17:15;100607.00;;;27.40
12061;BMP180;6091;51.432;6.880;2023-08-08T09:19:46;100617.00;;;27.50
12061;BMP180;6091;51.432;6.880;2023-08-08T09:22:14;100593.00;;;27.50
12061;BMP180;6091;51.432;6.880;2023-08-08T09:24:41;100602.00;;;27.50
12061;BMP180;6091;51.432;6.880;2023-08-08T09:27:09;100608.00;;;27.50
12061;BMP180;6091;51.432;6.880;2023-08-08T09:29:37;100606.00;;;27.50
12061;BMP180;6091;51.432;6.880;2023-08-08T09:32:06;100605.00;;;27.50
12061;BMP180;6091;51.432;6.880;2023-08-08T09:34:34;100607.00;;;27.50
12061;BMP180;6091;51.432;6.880;2023-08-08T09:37:01;100603.00;;;27.50
12061;BMP180;6091;51.432;6.880;2023-08-08T09:39:29;100604.00;;;27.50
12061;BMP180;6091;51.432;6.880;2023-08-08T09:41:56;100611.00;;;27.50
12061;BMP180;6091;51.432;6.880;2023-08-08T09:44:26;100611.00;;;27.50
12061;BMP180;6091;51.432;6.880;2023-08-08T09:46:59;100621.00;;;27.60
12061;BMP180;6091;51.432;6.880;2023-08-08T09:49:26;100609.00;;;27.60
12061;BMP180;6091;51.432;6.880;2023-08-08T09:51:55;100612.00;;;27.60
12061;BMP180;6091;51.432;6.880;2023-08-08T09:54:24;100611.00;;;27.60
12061;BMP180;6091;51.432;6.880;2023-08-08T09:56:51;100603.00;;;27.60
12061;BMP180;6091;51.432;6.880;2023-08-08T09:59:20;100609.00;;;27.60
12061;BMP180;6091;51.432;6.880;2023-08-08T10:01:48;100613.00;;;27.60
12061;BMP180;6091;51.432;6.880;2023-08-08T10:04:15;100604.00;;;27.60
12061;BMP180;6091;51.432;6.880;2023-08-08T10:06:42;100610.00;;;27.60
12061;BMP180;6091;51.432;6.880;2023-08-08T10:09:09;100613.00;;;27.60
12061;BMP180;6091;51.432;6.880;2023-08-08T10:11:37;100617.00;;;27.60
12061;BMP180;6091;51.432;6.880;2023-08-08T10:14:05;100614.00;;;27.60
12061;BMP180;6091;51.432;6.880;2023-08-08T10:16:33;100616.00;;;27.70
12061;BMP180;6091;51.432;6.880;2023-08-08T10:19:04;100609.00;;;27.70
12061;BMP180;6091;51.432;6.880;2023-08-08T10:21:37;100614.00;;;27.70
12061;BMP180;6091;51.432;6.880;2023-08-08T10:24:07;100618.00;;;27.80
12061;BMP180;6091;51.432;6.880;2023-08-08T10:26:52;100607.00;;;27.80
12061;BMP180;6091;51.432;6.880;2023-08-08T10:29:20;100605.00;;;27.80
12061;BMP180;6091;51.432;6.880;2023-08-08T10:32:06;100599.00;;;27.80
12061;BMP180;6091;51.432;6.880;2023-08-08T10:34:43;100609.00;;;27.90
12061;BMP180;6091;51.432;6.880;2023-08-08T10:37:16;100599.00;;;27.90
12061;BMP180;6091;51.432;6.880;2023-08-08T10:40:01;100607.00;;;28.00
12061;BMP180;6091;51.432;6.880;2023-08-08T10:42:43;100617.00;;;28.00
12061;BMP180;6091;51.432;6.880;2023-08-08T10:45:15;100606.00;;;28.20
12061;BMP180;6091;51.432;6.880;2023-08-08T10:47:43;100607.00;;;28.40
12061;BMP180;6091;51.432;6.880;2023-08-08T10:50:15;100617.00;;;28.70
12061;BMP180;6091;51.432;6.880;2023-08-08T10:55:30;100618.00;;;28.90
12061;BMP180;6091;51.432;6.880;2023-08-08T10:58:06;100622.00;;;28.90
12061;BMP180;6091;51.432;6.880;2023-08-08T11:00:39;100621.00;;;28.80
12061;BMP180;6091;51.432;6.880;2023-08-08T11:03:07;100628.00;;;28.80
12061;BMP180;6091;51.432;6.880;2023-08-08T11:05:37;100634.00;;;28.70
12061;BMP180;6091;51.432;6.880;2023-08-08T11:08:07;100626.00;;;28.60
12061;BMP180;6091;51.432;6.880;2023-08-08T11:10:39;100626.00;;;28.50
12061;BMP180;6091;51.432;6.880;2023-08-08T11:13:08;100631.00;;;28.40
12061;BMP180;6091;51.432;6.880;2023-08-08T11:15:37;100628.00;;;28.30
12061;BMP180;6091;51.432;6.880;2023-08-08T11:18:06;100624.00;;;28.30
12061;BMP180;6091;51.432;6.880;2023-08-08T11:20:35;100623.00;;;28.20
12061;BMP180;6091;51.432;6.880;2023-08-08T11:23:03;100625.00;;;28.20
12061;BMP180;6091;51.432;6.880;2023-08-08T11:25:33;100619.00;;;28.20
12061;BMP180;6091;51.432;6.880;2023-08-08T11:28:00;100611.00;;;28.20
12061;BMP180;6091;51.432;6.880;2023-08-08T11:30:37;100617.00;;;28.30
12061;BMP180;6091;51.432;6.880;2023-08-08T11:33:09;100609.00;;;28.40
12061;BMP180;6091;51.432;6.880;2023-08-08T11:35:44;100622.00;;;28.50
12061;BMP180;6091;51.432;6.880;2023-08-08T11:38:14;100607.00;;;28.60
12061;BMP180;6091;51.432;6.880;2023-08-08T11:40:42;100614.00;;;28.70
12061;BMP180;6091;51.432;6.880;2023-08-08T11:43:09;100608.00;;;28.80
12061;BMP180;6091;51.432;6.880;2023-08-08T11:45:38;100609.00;;;28.80
12061;BMP180;6091;51.432;6.880;2023-08-08T11:48:08;100616.00;;;28.90
12061;BMP180;6091;51.432;6.880;2023-08-08T11:50:37;100609.00;;;28.90
12061;BMP180;6091;51.432;6.880;2023-08-08T11:53:04;100611.00;;;28.90
12061;BMP180;6091;51.432;6.880;2023-08-08T11:55:33;100606.00;;;28.90
12061;BMP180;6091;51.432;6.880;2023-08-08T11:58:00;100596.00;;;28.90
12061;BMP180;6091;51.432;6.880;2023-08-08T12:00:29;100599.00;;;29.00
12061;BMP180;6091;51.432;6.880;2023-08-08T12:02:59;100602.00;;;29.00
12061;BMP180;6091;51.432;6.880;2023-08-08T12:05:29;100592.00;;;29.10
12061;BMP180;6091;51.432;6.880;2023-08-08T12:07:58;100597.00;;;29.20
12061;BMP180;6091;51.432;6.880;2023-08-08T12:10:25;100596.00;;;29.30
12061;BMP180;6091;51.432;6.880;2023-08-08T12:12:55;100595.00;;;29.40
12061;BMP180;6091;51.432;6.880;2023-08-08T12:15:35;100602.00;;;29.50
12061;BMP180;6091;51.432;6.880;2023-08-08T12:18:03;100593.00;;;29.60
12061;BMP180;6091;51.432;6.880;2023-08-08T12:20:31;100601.00;;;29.80
12061;BMP180;6091;51.432;6.880;2023-08-08T12:23:00;100592.00;;;29.90
12061;BMP180;6091;51.432;6.880;2023-08-08T12:25:27;100603.00;;;30.00
12061;BMP180;6091;51.432;6.880;2023-08-08T12:27:55;100590.00;;;30.10
12061;BMP180;6091;51.432;6.880;2023-08-08T12:30:22;100597.00;;;30.20
12061;BMP180;6091;51.432;6.880;2023-08-08T12:32:49;100601.00;;;30.30
12061;BMP180;6091;51.432;6.880;2023-08-08T12:35:16;100593.00;;;30.40
12061;BMP180;6091;51.432;6.880;2023-08-08T12:37:43;100596.00;;;30.40
12061;BMP180;6091;51.432;6.880;2023-08-08T12:40:11;100595.00;;;30.40
12061;BMP180;6091;51.432;6.880;2023-08-08T12:42:40;100599.00;;;30.40
12061;BMP180;6091;51.432;6.880;2023-08-08T12:45:08;100606.00;;;30.30
12061;BMP180;6091;51.432;6.880;2023-08-08T12:47:37;100599.00;;;30.20
12061;BMP180;6091;51.432;6.880;2023-08-08T12:50:06;100597.00;;;30.10
12061;BMP180;6091;51.432;6.880;2023-08-08T12:52:33;100605.00;;;30.00
12061;BMP180;6091;51.432;6.880;2023-08-08T12:55:01;100603.00;;;30.00
12061;BMP180;6091;51.432;6.880;2023-08-08T12:57:28;100593.00;;;29.90
12061;BMP180;6091;51.432;6.880;2023-08-08T12:59:55;100593.00;;;29.80
12061;BMP180;6091;51.432;6.880;2023-08-08T13:02:22;100590.00;;;29.80
12061;BMP180;6091;51.432;6.880;2023-08-08T13:04:49;100596.00;;;29.70
12061;BMP180;6091;51.432;6.880;2023-08-08T13:07:18;100592.00;;;29.70
12061;BMP180;6091;51.432;6.880;2023-08-08T13:09:45;100583.00;;;29.80
12061;BMP180;6091;51.432;6.880;2023-08-08T13:12:12;100583.00;;;29.80
12061;BMP180;6091;51.432;6.880;2023-08-08T13:14:39;100579.00;;;29.80
12061;BMP180;6091;51.432;6.880;2023-08-08T13:17:06;100579.00;;;29.80
12061;BMP180;6091;51.432;6.880;2023-08-08T13:19:33;100569.00;;;29.90
12061;BMP180;6091;51.432;6.880;2023-08-08T13:22:00;100580.00;;;29.90
12061;BMP180;6091;51.432;6.880;2023-08-08T13:24:27;100577.00;;;29.80
12061;BMP180;6091;51.432;6.880;2023-08-08T13:26:55;100587.00;;;29.80
12061;BMP180;6091;51.432;6.880;2023-08-08T13:29:23;100577.00;;;29.80
12061;BMP180;6091;51.432;6.880;2023-08-08T13:31:50;100589.00;;;29.80
12061;BMP180;6091;51.432;6.880;2023-08-08T13:34:17;100582.00;;;29.70
12061;BMP180;6091;51.432;6.880;2023-08-08T13:36:45;100583.00;;;29.70
12061;BMP180;6091;51.432;6.880;2023-08-08T13:39:12;100586.00;;;29.60
12061;BMP180;6091;51.432;6.880;2023-08-08T13:41:40;100586.00;;;29.50
12061;BMP180;6091;51.432;6.880;2023-08-08T13:44:07;100602.00;;;29.50
12061;BMP180;6091;51.432;6.880;2023-08-08T13:46:34;100587.00;;;29.40
12061;BMP180;6091;51.432;6.880;2023-08-08T13:49:01;100580.00;;;29.40
12061;BMP180;6091;51.432;6.880;2023-08-08T13:51:28;100587.00;;;29.30
12061;BMP180;6091;51.432;6.880;2023-08-08T13:53:55;100580.00;;;29.30
12061;BMP180;6091;51.432;6.880;2023-08-08T13:56:25;100581.00;;;29.20
12061;BMP180;6091;51.432;6.880;2023-08-08T13:58:52;100577.00;;;29.20
12061;BMP180;6091;51.432;6.880;2023-08-08T14:01:19;100579.00;;;29.10
12061;BMP180;6091;51.432;6.880;2023-08-08T14:03:46;100583.00;;;29.10
12061;BMP180;6091;51.432;6.880;2023-08-08T14:06:14;100581.00;;;29.10
12061;BMP180;6091;51.432;6.880;2023-08-08T14:08:41;100580.00;;;29.10
12061;BMP180;6091;51.432;6.880;2023-08-08T14:11:08;100589.00;;;29.10
12061;BMP180;6091;51.432;6.880;2023-08-08T14:13:35;100588.00;;;29.00
12061;BMP180;6091;51.432;6.880;2023-08-08T14:16:04;100588.00;;;29.00
12061;BMP180;6091;51.432;6.880;2023-08-08T14:18:31;100589.00;;;29.00